Baucum, Arkansas
Current Conditions -  °F | °C
As of 12:53 PM on Thursday 27 Nov 2014 (Local Time) from KLIT Reporting Station
Scattered Clouds Scattered Clouds  
Wind Chill: 44°   Ceiling: Unl
Heat Index: 47°   Visibility: 10mi
Dew Point: 24°   Wind: 7mph
Humidity: 41%   Direction: 300°WNW
Pressure: 30.51"   Gusts: NA
Location:  34.757°N, 92.1411°W
Report Text: KLIT 271853Z 30006KT 10SM SCT250 08/M04 A3051 RMK AO2 SLP334 T00831044
Loading
Personal Weather Stations






























Interactive Weather Map New forecast layout! Learn more

10-Day Weather Forecast

Advertisements
Track Severe Weather on mobile